createdAt,value
2018-05-17T00:00:17.936Z,14.17
2018-05-17T00:02:49.323Z,14.12
2018-05-17T00:05:20.588Z,14.11
2018-05-17T00:07:51.868Z,14.09
2018-05-17T00:10:23.353Z,14.01
2018-05-17T00:12:54.840Z,14.08
2018-05-17T00:15:26.263Z,14.11
2018-05-17T00:18:03.487Z,14.15
2018-05-17T00:20:35.133Z,14.12
2018-05-17T00:23:07.178Z,14.11
2018-05-17T00:25:39.576Z,13.99
2018-05-17T00:31:14.480Z,14.03
2018-05-17T00:33:45.950Z,14.05
2018-05-17T00:36:17.408Z,14.01
2018-05-17T00:38:48.754Z,14.07
2018-05-17T00:41:20.105Z,14.07
2018-05-17T00:43:51.727Z,14.17
2018-05-17T00:46:23.395Z,14.18
2018-05-17T00:48:54.776Z,14.13
2018-05-17T00:51:26.111Z,14.11
2018-05-17T00:53:57.576Z,14.15
2018-05-17T00:56:28.787Z,14.21
2018-05-17T00:59:00.593Z,14.16
2018-05-17T01:01:31.899Z,14.21
2018-05-17T01:04:03.255Z,14.23
2018-05-17T01:06:34.629Z,14.21
2018-05-17T01:09:06.568Z,14.26
2018-05-17T01:11:38.008Z,14.12
2018-05-17T01:14:09.494Z,14.08
2018-05-17T01:16:41.114Z,13.92
2018-05-17T01:19:13.114Z,14.12
2018-05-17T01:21:44.444Z,14.10
2018-05-17T01:24:16.298Z,14.08
2018-05-17T01:26:47.646Z,14.17
2018-05-17T01:29:19.295Z,14.16
2018-05-17T01:31:50.531Z,14.09
2018-05-17T01:34:22.087Z,14.05
2018-05-17T01:37:01.869Z,13.89
2018-05-17T01:39:45.097Z,13.86
2018-05-17T01:42:16.412Z,13.90
2018-05-17T01:44:47.674Z,13.92
2018-05-17T01:47:19.112Z,13.87
2018-05-17T01:49:50.595Z,13.89
2018-05-17T01:52:21.905Z,13.90
2018-05-17T01:54:53.501Z,13.84
2018-05-17T01:57:24.908Z,13.88
2018-05-17T01:59:56.613Z,13.92
2018-05-17T02:02:28.306Z,13.88
2018-05-17T02:04:59.679Z,13.99
2018-05-17T02:07:31.044Z,14.02
2018-05-17T02:10:02.478Z,13.96
2018-05-17T02:12:33.941Z,13.83
2018-05-17T02:15:05.615Z,14.05
2018-05-17T02:17:37.027Z,14.07
2018-05-17T02:20:08.287Z,14.03
2018-05-17T02:22:39.635Z,14.05
2018-05-17T02:25:11.007Z,14.05
2018-05-17T02:27:42.439Z,14.02
2018-05-17T02:30:14.191Z,14.08
2018-05-17T02:35:41.771Z,14.16
2018-05-17T02:38:14.391Z,14.15
2018-05-17T02:41:03.539Z,14.09
2018-05-17T02:43:34.863Z,14.12
2018-05-17T02:46:06.337Z,14.03
2018-05-17T02:48:37.658Z,14.08
2018-05-17T02:51:09.300Z,14.15
2018-05-17T02:53:40.652Z,14.14
2018-05-17T02:56:12.439Z,14.13
2018-05-17T02:58:43.764Z,14.19
2018-05-17T03:01:15.519Z,14.18
2018-05-17T03:03:46.870Z,14.17
2018-05-17T03:06:18.232Z,14.20
2018-05-17T03:08:55.641Z,14.23
2018-05-17T03:11:27.068Z,13.97
2018-05-17T03:13:58.071Z,14.08
2018-05-17T03:16:29.471Z,14.16
2018-05-17T03:19:00.795Z,14.20
2018-05-17T03:21:49.792Z,14.16
2018-05-17T03:24:21.955Z,14.44
2018-05-17T03:26:53.308Z,14.45
2018-05-17T03:29:24.740Z,14.30
2018-05-17T03:31:56.083Z,14.37
2018-05-17T03:34:27.542Z,14.26
2018-05-17T03:36:58.598Z,14.29
2018-05-17T03:39:29.908Z,14.41
2018-05-17T03:42:05.672Z,14.56
2018-05-17T03:44:37.047Z,14.70
2018-05-17T03:47:08.388Z,14.74
2018-05-17T03:49:45.238Z,14.54
2018-05-17T03:52:16.663Z,14.48
2018-05-17T03:54:48.147Z,14.63
2018-05-17T03:57:19.728Z,14.60
2018-05-17T03:59:51.336Z,14.61
2018-05-17T04:02:34.921Z,14.69
2018-05-17T04:05:17.960Z,14.74
2018-05-17T04:07:57.614Z,14.59
2018-05-17T04:10:29.960Z,14.74
2018-05-17T04:13:01.745Z,14.75
2018-05-17T04:15:34.843Z,14.60
2018-05-17T04:18:06.679Z,14.59
2018-05-17T04:20:40.540Z,14.71
2018-05-17T04:23:13.024Z,14.62
2018-05-17T04:25:44.463Z,14.79
2018-05-17T04:28:15.727Z,14.69
2018-05-17T04:30:47.193Z,14.70
2018-05-17T04:33:18.833Z,14.74
2018-05-17T04:35:50.272Z,14.79
2018-05-17T04:38:21.738Z,14.86
2018-05-17T04:40:53.176Z,14.65
2018-05-17T04:43:25.043Z,14.53
2018-05-17T04:45:56.388Z,14.63
2018-05-17T04:48:28.006Z,14.56
2018-05-17T04:50:58.984Z,14.40
2018-05-17T04:53:41.925Z,14.34
2018-05-17T04:56:13.318Z,14.33
2018-05-17T04:58:45.025Z,14.13
2018-05-17T05:01:16.522Z,14.34
2018-05-17T05:03:48.240Z,14.36
2018-05-17T05:06:19.966Z,14.37
2018-05-17T05:08:52.005Z,14.18
2018-05-17T05:11:23.603Z,14.28
2018-05-17T05:13:55.169Z,14.35
2018-05-17T05:16:26.593Z,14.21
2018-05-17T05:18:58.146Z,14.02
2018-05-17T05:21:29.606Z,14.12
2018-05-17T05:24:00.958Z,14.39
2018-05-17T05:26:31.980Z,14.12
2018-05-17T05:29:03.051Z,14.19
2018-05-17T05:31:34.187Z,14.01
2018-05-17T05:34:05.959Z,14.13
2018-05-17T05:36:37.000Z,14.10
2018-05-17T05:39:08.200Z,14.00
2018-05-17T05:41:39.478Z,14.27
2018-05-17T05:44:11.230Z,14.08
2018-05-17T05:46:42.563Z,14.29
2018-05-17T05:49:28.552Z,13.65
2018-05-17T05:51:59.810Z,14.11
2018-05-17T05:54:32.360Z,13.97
2018-05-17T05:57:12.322Z,13.79
2018-05-17T05:59:43.791Z,14.10
2018-05-17T06:02:14.819Z,14.00
2018-05-17T06:04:46.520Z,13.84
2018-05-17T06:07:17.840Z,13.94
2018-05-17T06:09:49.087Z,13.69
2018-05-17T06:12:20.535Z,13.54
2018-05-17T06:14:51.895Z,14.05
2018-05-17T06:17:23.402Z,14.17
2018-05-17T06:19:57.057Z,13.72
2018-05-17T06:22:28.497Z,13.93
2018-05-17T06:25:02.220Z,13.98
2018-05-17T06:27:34.241Z,13.67
2018-05-17T06:30:05.744Z,13.62
2018-05-17T06:32:37.459Z,13.76
2018-05-17T06:35:10.129Z,14.10
2018-05-17T06:37:49.433Z,13.86
2018-05-17T06:40:20.727Z,13.85
2018-05-17T06:42:52.165Z,13.88
2018-05-17T06:45:23.823Z,13.81
2018-05-17T06:47:55.292Z,13.90
2018-05-17T06:50:28.574Z,14.03
2018-05-17T06:53:00.017Z,13.63
2018-05-17T06:55:32.343Z,13.89
2018-05-17T06:58:05.018Z,13.77
2018-05-17T07:03:32.684Z,13.77
2018-05-17T07:06:04.419Z,13.66
2018-05-17T07:08:44.697Z,13.36
2018-05-17T07:11:15.939Z,13.44
2018-05-17T07:13:47.354Z,13.65
2018-05-17T07:16:18.620Z,13.44
2018-05-17T07:18:49.956Z,13.65
2018-05-17T07:21:24.925Z,13.74
2018-05-17T07:23:56.270Z,13.49
2018-05-17T07:26:27.874Z,13.56
2018-05-17T07:28:58.932Z,13.29
2018-05-17T07:31:30.309Z,13.47
2018-05-17T07:34:04.111Z,13.19
2018-05-17T07:36:35.738Z,13.62
2018-05-17T07:39:08.032Z,13.43
2018-05-17T07:41:41.739Z,13.70
2018-05-17T07:44:13.175Z,13.98
2018-05-17T07:46:44.449Z,13.77
2018-05-17T07:49:15.858Z,13.90
2018-05-17T07:51:51.755Z,13.82
2018-05-17T07:54:23.063Z,13.73
2018-05-17T07:56:54.874Z,13.83
2018-05-17T07:59:26.277Z,13.87
2018-05-17T08:02:03.986Z,14.05
2018-05-17T08:04:35.327Z,14.29
2018-05-17T08:07:07.049Z,14.17
2018-05-17T08:09:38.534Z,13.96
2018-05-17T08:12:09.915Z,14.05
2018-05-17T08:14:41.283Z,14.21
2018-05-17T08:17:12.584Z,13.96
2018-05-17T08:19:43.588Z,14.16
2018-05-17T08:22:14.980Z,14.28
2018-05-17T08:24:45.978Z,14.47
2018-05-17T08:27:17.004Z,14.31
2018-05-17T08:29:48.299Z,14.48
2018-05-17T08:32:23.570Z,14.30
2018-05-17T08:34:54.625Z,14.34
2018-05-17T08:37:25.931Z,14.33
2018-05-17T08:39:56.951Z,14.39
2018-05-17T08:42:28.661Z,14.55
2018-05-17T08:45:00.004Z,14.00
2018-05-17T08:47:31.795Z,14.36
2018-05-17T08:50:04.148Z,14.01
2018-05-17T08:52:36.401Z,14.09
2018-05-17T08:55:11.515Z,13.83
2018-05-17T08:57:43.019Z,14.24
2018-05-17T09:00:14.420Z,14.36
2018-05-17T09:02:46.039Z,14.17
2018-05-17T09:05:19.780Z,13.96
2018-05-17T09:07:51.635Z,14.36
2018-05-17T09:10:25.988Z,13.93
2018-05-17T09:12:57.001Z,14.15
2018-05-17T09:15:28.375Z,14.30
2018-05-17T09:18:07.213Z,14.48
2018-05-17T09:20:38.932Z,14.20
2018-05-17T09:23:10.790Z,14.37
2018-05-17T09:25:42.147Z,13.80
2018-05-17T09:28:13.500Z,13.65
2018-05-17T09:30:44.835Z,13.59
2018-05-17T09:33:16.471Z,13.53
2018-05-17T09:35:47.536Z,13.85
2018-05-17T09:38:19.653Z,13.42
2018-05-17T09:40:51.044Z,13.18
2018-05-17T09:43:22.423Z,13.23
2018-05-17T09:45:53.740Z,13.19
2018-05-17T09:48:24.779Z,13.36
2018-05-17T09:50:56.158Z,13.17
2018-05-17T09:53:27.795Z,13.12
2018-05-17T09:55:59.152Z,13.33
2018-05-17T09:58:33.967Z,13.79
2018-05-17T10:01:05.451Z,13.96
2018-05-17T10:03:36.575Z,13.43
2018-05-17T10:06:07.630Z,14.04
2018-05-17T10:08:38.926Z,13.86
2018-05-17T10:11:09.970Z,14.31
2018-05-17T10:13:41.079Z,14.28
2018-05-17T10:16:12.523Z,14.16
2018-05-17T10:18:43.584Z,14.53
2018-05-17T10:21:14.806Z,14.48
2018-05-17T10:23:46.397Z,14.01
2018-05-17T10:26:17.980Z,13.44
2018-05-17T10:28:49.460Z,13.42
2018-05-17T10:31:20.913Z,13.58
2018-05-17T10:33:53.589Z,13.65
2018-05-17T10:36:25.179Z,13.77
2018-05-17T10:38:56.897Z,13.70
2018-05-17T10:41:28.276Z,13.80
2018-05-17T10:43:59.612Z,13.73
2018-05-17T10:46:31.018Z,13.78
2018-05-17T10:49:02.558Z,13.76
2018-05-17T10:51:34.091Z,13.96
2018-05-17T10:54:05.760Z,13.78
2018-05-17T10:56:37.762Z,14.31
2018-05-17T10:59:09.947Z,14.49
2018-05-17T11:01:41.277Z,14.50
2018-05-17T11:04:12.474Z,14.66
2018-05-17T11:06:43.827Z,15.02
2018-05-17T11:09:15.148Z,15.13
2018-05-17T11:11:46.574Z,14.90
2018-05-17T11:14:17.908Z,15.07
2018-05-17T11:16:49.346Z,15.02
2018-05-17T11:19:20.846Z,14.98
2018-05-17T11:21:52.159Z,14.99
2018-05-17T11:24:23.672Z,15.08
2018-05-17T11:26:55.055Z,14.69
2018-05-17T11:29:26.083Z,14.74
2018-05-17T11:31:57.482Z,14.50
2018-05-17T11:34:30.338Z,14.41
2018-05-17T11:37:01.419Z,14.78
2018-05-17T11:39:33.131Z,14.87
2018-05-17T11:42:04.591Z,15.14
2018-05-17T11:44:36.016Z,15.01
2018-05-17T11:47:07.052Z,14.98
2018-05-17T11:49:38.279Z,15.03
2018-05-17T11:52:14.707Z,15.00
2018-05-17T11:54:46.754Z,15.00
2018-05-17T11:57:18.302Z,14.94
2018-05-17T11:59:49.960Z,15.23
2018-05-17T12:02:21.299Z,14.83
2018-05-17T12:04:52.787Z,14.79
2018-05-17T12:07:28.027Z,15.47
2018-05-17T12:09:59.247Z,15.46
2018-05-17T12:12:30.699Z,15.96
2018-05-17T12:15:02.290Z,16.08
2018-05-17T12:17:34.982Z,15.51
2018-05-17T12:20:06.918Z,15.79
2018-05-17T12:22:43.119Z,16.07
2018-05-17T12:25:14.414Z,16.17
2018-05-17T12:27:45.655Z,15.68
2018-05-17T12:30:17.715Z,15.93
2018-05-17T12:32:49.071Z,15.73
2018-05-17T12:35:20.824Z,15.90
2018-05-17T12:37:54.953Z,15.83
2018-05-17T12:40:26.887Z,15.72
2018-05-17T12:42:58.023Z,16.15
2018-05-17T12:45:29.340Z,16.45
2018-05-17T12:48:00.334Z,16.62
2018-05-17T12:50:31.807Z,16.62
2018-05-17T12:53:03.720Z,16.77
2018-05-17T12:55:35.140Z,16.74
2018-05-17T12:58:06.396Z,16.58
2018-05-17T13:00:39.344Z,16.22
2018-05-17T13:03:11.747Z,16.05
2018-05-17T13:05:43.306Z,15.84
2018-05-17T13:08:14.904Z,16.19
2018-05-17T13:10:46.675Z,16.06
2018-05-17T13:13:18.007Z,16.50
2018-05-17T13:15:49.485Z,16.68
2018-05-17T13:18:20.942Z,16.48
2018-05-17T13:20:52.470Z,16.38
2018-05-17T13:23:24.214Z,16.48
2018-05-17T13:25:55.271Z,16.56
2018-05-17T13:28:26.291Z,16.74
2018-05-17T13:30:57.795Z,16.95
2018-05-17T13:33:28.786Z,17.11
2018-05-17T13:35:59.805Z,16.98
2018-05-17T13:38:30.838Z,16.98
2018-05-17T13:41:02.163Z,17.19
2018-05-17T13:43:33.180Z,17.50
2018-05-17T13:46:04.550Z,17.62
2018-05-17T13:48:35.861Z,17.04
2018-05-17T13:51:07.328Z,16.89
2018-05-17T13:53:38.653Z,17.32
2018-05-17T13:56:12.103Z,17.58
2018-05-17T13:58:44.328Z,17.67
2018-05-17T14:01:15.956Z,17.84
2018-05-17T14:03:47.220Z,17.48
2018-05-17T14:06:18.686Z,17.52
2018-05-17T14:08:50.026Z,17.79
2018-05-17T14:11:21.772Z,17.84
2018-05-17T14:14:06.582Z,17.79
2018-05-17T14:16:38.829Z,17.93
2018-05-17T14:19:10.275Z,17.44
2018-05-17T14:21:43.066Z,17.60
2018-05-17T14:24:14.412Z,17.66
2018-05-17T14:26:45.793Z,17.87
2018-05-17T14:29:18.461Z,17.84
2018-05-17T14:31:50.362Z,17.87
2018-05-17T14:34:21.839Z,17.50
2018-05-17T14:36:53.210Z,17.35
2018-05-17T14:39:24.650Z,17.77
2018-05-17T14:42:01.340Z,17.99
2018-05-17T14:44:32.891Z,17.89
2018-05-17T14:47:04.331Z,17.92
2018-05-17T14:52:37.047Z,18.07
2018-05-17T14:55:08.635Z,18.18
2018-05-17T14:57:46.284Z,18.29
2018-05-17T15:00:17.627Z,18.16
2018-05-17T15:02:48.959Z,18.00
2018-05-17T15:05:26.697Z,17.90
2018-05-17T15:07:58.363Z,17.77
2018-05-17T15:10:29.675Z,18.13
2018-05-17T15:13:03.551Z,18.28
2018-05-17T15:15:36.235Z,18.34
2018-05-17T15:18:08.153Z,17.98
2018-05-17T15:20:40.503Z,17.84
2018-05-17T15:23:12.742Z,17.58
2018-05-17T15:25:44.219Z,17.79
2018-05-17T15:28:22.256Z,18.16
2018-05-17T15:30:56.045Z,17.67
2018-05-17T15:33:30.517Z,17.74
2018-05-17T15:36:03.929Z,18.05
2018-05-17T15:38:38.036Z,18.08
2018-05-17T15:41:10.713Z,17.88
2018-05-17T15:43:42.603Z,17.39
2018-05-17T15:46:14.057Z,17.50
2018-05-17T15:48:45.523Z,17.73
2018-05-17T15:51:16.880Z,17.68
2018-05-17T15:53:57.854Z,17.83
2018-05-17T15:56:29.304Z,17.86
2018-05-17T15:59:01.385Z,17.91
2018-05-17T16:01:32.800Z,17.69
2018-05-17T16:04:04.426Z,17.43
2018-05-17T16:06:35.500Z,17.53
2018-05-17T16:09:07.348Z,17.38
2018-05-17T16:11:38.420Z,17.61
2018-05-17T16:14:09.842Z,17.63
2018-05-17T16:16:41.305Z,17.41
2018-05-17T16:19:12.671Z,17.80
2018-05-17T16:21:44.218Z,17.83
2018-05-17T16:24:15.585Z,17.80
2018-05-17T16:26:46.900Z,18.05
2018-05-17T16:29:18.781Z,18.15
2018-05-17T16:31:50.204Z,18.04
2018-05-17T16:34:24.036Z,17.90
2018-05-17T16:36:55.662Z,18.17
2018-05-17T16:39:27.940Z,17.79
2018-05-17T16:41:59.479Z,17.81
2018-05-17T16:44:31.863Z,17.94
2018-05-17T16:47:03.321Z,17.62
2018-05-17T16:49:34.355Z,17.68
2018-05-17T16:52:05.977Z,17.53
2018-05-17T16:54:42.752Z,17.62
2018-05-17T16:57:14.131Z,17.44
2018-05-17T16:59:45.518Z,17.49
2018-05-17T17:02:16.855Z,17.46
2018-05-17T17:04:48.621Z,17.44
2018-05-17T17:07:20.350Z,17.20
2018-05-17T17:09:52.179Z,17.39
2018-05-17T17:12:23.559Z,17.72
2018-05-17T17:15:08.246Z,17.74
2018-05-17T17:17:39.571Z,17.82
2018-05-17T17:20:10.919Z,18.51
2018-05-17T17:22:41.982Z,18.56
2018-05-17T17:25:13.416Z,17.57
2018-05-17T17:27:44.760Z,16.99
2018-05-17T17:30:18.406Z,17.03
2018-05-17T17:32:49.815Z,17.13
2018-05-17T17:35:33.711Z,17.03
2018-05-17T17:38:07.621Z,17.01
2018-05-17T17:40:46.109Z,16.69
2018-05-17T17:43:18.899Z,16.75
2018-05-17T17:45:51.052Z,16.86
2018-05-17T17:48:22.475Z,16.78
2018-05-17T17:50:54.131Z,16.53
2018-05-17T17:53:25.576Z,16.41
2018-05-17T17:55:57.059Z,16.38
2018-05-17T17:58:33.296Z,15.96
2018-05-17T18:01:04.911Z,16.13
2018-05-17T18:03:36.295Z,16.43
2018-05-17T18:06:08.197Z,16.28
2018-05-17T18:08:39.610Z,16.40
2018-05-17T18:11:19.276Z,16.29
2018-05-17T18:13:50.707Z,16.29
2018-05-17T18:16:22.423Z,16.09
2018-05-17T18:18:53.923Z,15.97
2018-05-17T18:21:25.207Z,15.59
2018-05-17T18:24:10.818Z,15.66
2018-05-17T18:26:41.909Z,16.10
2018-05-17T18:29:13.124Z,16.00
2018-05-17T18:31:45.126Z,15.99
2018-05-17T18:34:17.142Z,15.70
2018-05-17T18:36:48.285Z,15.61
2018-05-17T18:42:25.731Z,15.84
2018-05-17T18:44:58.002Z,15.21
2018-05-17T18:50:36.575Z,15.61
2018-05-17T18:53:09.175Z,15.41
2018-05-17T18:55:46.379Z,15.50
2018-05-17T18:58:18.190Z,15.47
2018-05-17T19:00:49.566Z,15.29
2018-05-17T19:03:20.968Z,15.27
2018-05-17T19:05:53.072Z,15.33
2018-05-17T19:08:24.589Z,15.16
2018-05-17T19:10:56.985Z,15.06
2018-05-17T19:13:28.650Z,14.96
2018-05-17T19:16:13.286Z,15.21
2018-05-17T19:18:46.923Z,15.12
2018-05-17T19:21:18.528Z,15.19
2018-05-17T19:23:49.887Z,15.06
2018-05-17T19:26:21.340Z,14.92
2018-05-17T19:28:52.817Z,14.76
2018-05-17T19:31:37.660Z,14.77
2018-05-17T19:34:09.107Z,14.63
2018-05-17T19:36:40.454Z,14.49
2018-05-17T19:39:12.251Z,14.48
2018-05-17T19:41:43.569Z,13.80
2018-05-17T19:44:15.379Z,13.49
2018-05-17T19:47:00.230Z,13.19
2018-05-17T19:49:32.479Z,13.18
2018-05-17T19:52:04.924Z,13.49
2018-05-17T19:54:36.267Z,13.86
2018-05-17T19:57:07.707Z,14.24
2018-05-17T19:59:39.186Z,13.99
2018-05-17T20:02:10.631Z,13.89
2018-05-17T20:04:42.287Z,13.37
2018-05-17T20:07:15.048Z,13.16
2018-05-17T20:09:46.928Z,13.16
2018-05-17T20:12:18.356Z,13.23
2018-05-17T20:14:49.815Z,12.93
2018-05-17T20:17:21.372Z,12.87
2018-05-17T20:19:53.011Z,12.85
2018-05-17T20:22:24.452Z,12.89
2018-05-17T20:24:55.811Z,12.85
2018-05-17T20:27:46.028Z,13.03
2018-05-17T20:30:18.468Z,13.30
2018-05-17T20:32:49.811Z,13.25
2018-05-17T20:35:33.176Z,13.33
2018-05-17T20:38:06.483Z,13.52
2018-05-17T20:40:38.860Z,13.55
2018-05-17T20:43:14.869Z,13.51
2018-05-17T20:45:51.391Z,13.62
2018-05-17T20:48:24.575Z,13.46
2018-05-17T20:50:57.191Z,13.54
2018-05-17T20:56:28.283Z,13.39
2018-05-17T20:58:59.672Z,13.39
2018-05-17T21:04:30.803Z,13.17
2018-05-17T21:07:02.251Z,12.72
2018-05-17T21:12:43.513Z,12.84
2018-05-17T21:15:15.097Z,12.57
2018-05-17T21:17:46.839Z,12.48
2018-05-17T21:20:20.880Z,12.56
2018-05-17T21:22:52.529Z,12.75
2018-05-17T21:25:23.948Z,12.94
2018-05-17T21:27:55.199Z,13.02
2018-05-17T21:30:26.427Z,12.96
2018-05-17T21:32:58.026Z,12.84
2018-05-17T21:35:29.084Z,12.31
2018-05-17T21:38:00.340Z,12.04
2018-05-17T21:40:31.943Z,12.33
2018-05-17T21:43:03.631Z,12.60
2018-05-17T21:45:35.711Z,12.65
2018-05-17T21:48:08.856Z,12.38
2018-05-17T21:50:39.890Z,12.71
2018-05-17T21:56:18.512Z,12.41
2018-05-17T21:58:49.708Z,12.55
2018-05-17T22:01:21.154Z,12.54
2018-05-17T22:03:52.660Z,12.16
2018-05-17T22:06:24.254Z,12.35
2018-05-17T22:08:55.775Z,12.44
2018-05-17T22:11:27.290Z,12.37
2018-05-17T22:13:58.746Z,12.47
2018-05-17T22:16:30.114Z,12.54
2018-05-17T22:19:07.058Z,12.34
2018-05-17T22:21:38.484Z,12.46
2018-05-17T22:24:10.039Z,12.46
2018-05-17T22:26:42.648Z,12.41
2018-05-17T22:29:17.657Z,12.43
2018-05-17T22:31:49.440Z,12.34
2018-05-17T22:34:20.481Z,12.31
2018-05-17T22:36:51.520Z,11.47
2018-05-17T22:39:22.863Z,11.65
2018-05-17T22:41:54.291Z,12.15
2018-05-17T22:44:47.588Z,11.68
2018-05-17T22:47:18.903Z,11.51
2018-05-17T22:49:50.155Z,12.17
2018-05-17T22:52:21.369Z,12.00
2018-05-17T22:54:52.656Z,12.28
2018-05-17T22:57:32.522Z,12.40
2018-05-17T23:03:00.072Z,11.50
2018-05-17T23:05:31.492Z,12.00
2018-05-17T23:08:02.867Z,12.43
2018-05-17T23:10:34.505Z,12.49
2018-05-17T23:13:05.871Z,12.49
2018-05-17T23:15:37.650Z,12.53
2018-05-17T23:18:09.203Z,12.40
2018-05-17T23:20:58.734Z,12.62
2018-05-17T23:23:30.112Z,12.75
2018-05-17T23:26:01.771Z,12.70
2018-05-17T23:28:42.361Z,12.54
2018-05-17T23:31:13.645Z,12.66
2018-05-17T23:33:45.041Z,12.67
2018-05-17T23:36:16.502Z,12.44
2018-05-17T23:38:47.926Z,12.60
2018-05-17T23:41:33.851Z,12.62
2018-05-17T23:44:05.288Z,12.42
2018-05-17T23:46:36.735Z,12.53
2018-05-17T23:49:08.546Z,12.59
2018-05-17T23:51:39.999Z,12.59
2018-05-17T23:54:11.380Z,12.61
2018-05-17T23:56:45.528Z,12.52
2018-05-17T23:59:17.255Z,12.58
